createdAt,value
2018-11-05T00:00:00.052Z,35.90
2018-11-05T00:00:59.996Z,34.80
2018-11-05T00:01:59.939Z,34.80
2018-11-05T00:02:59.895Z,34.40
2018-11-05T00:03:59.895Z,33.90
2018-11-05T00:04:59.798Z,36.10
2018-11-05T00:05:59.746Z,34.00
2018-11-05T00:06:59.696Z,37.00
2018-11-05T00:07:59.654Z,36.70
2018-11-05T00:08:59.602Z,37.40
2018-11-05T00:09:59.555Z,37.90
2018-11-05T00:10:59.506Z,40.30
2018-11-05T00:11:59.458Z,40.50
2018-11-05T00:12:59.413Z,43.00
2018-11-05T00:13:59.360Z,45.50
2018-11-05T00:14:59.314Z,40.90
2018-11-05T00:15:59.260Z,39.40
2018-11-05T00:16:59.218Z,39.70
2018-11-05T00:17:59.168Z,34.90
2018-11-05T00:18:59.116Z,39.00
2018-11-05T00:19:59.068Z,39.80
2018-11-05T00:20:59.023Z,36.30
2018-11-05T00:21:58.972Z,38.20
2018-11-05T00:22:58.923Z,38.80
2018-11-05T00:23:58.883Z,38.70
2018-11-05T00:24:58.828Z,40.30
2018-11-05T00:25:58.779Z,36.20
2018-11-05T00:26:58.731Z,38.90
2018-11-05T00:27:58.681Z,38.00
2018-11-05T00:28:58.631Z,40.90
2018-11-05T00:29:58.581Z,38.40
2018-11-05T00:30:58.532Z,38.40
2018-11-05T00:31:58.490Z,35.80
2018-11-05T00:32:58.440Z,36.10
2018-11-05T00:33:58.408Z,38.20
2018-11-05T00:34:58.341Z,37.70
2018-11-05T00:35:58.299Z,38.10
2018-11-05T00:36:58.243Z,33.90
2018-11-05T00:37:58.196Z,37.00
2018-11-05T00:38:58.147Z,38.30
2018-11-05T00:39:58.106Z,32.80
2018-11-05T00:40:58.050Z,36.50
2018-11-05T00:41:58.002Z,34.20
2018-11-05T00:42:57.954Z,38.10
2018-11-05T00:43:57.904Z,33.00
2018-11-05T00:44:57.856Z,32.50
2018-11-05T00:45:57.806Z,34.90
2018-11-05T00:46:57.887Z,33.60
2018-11-05T00:47:57.712Z,34.40
2018-11-05T00:48:57.659Z,36.00
2018-11-05T00:49:57.614Z,34.20
2018-11-05T00:50:57.568Z,36.60
2018-11-05T00:51:57.513Z,38.20
2018-11-05T00:52:57.462Z,32.60
2018-11-05T00:53:57.416Z,31.80
2018-11-05T00:54:57.370Z,33.80
2018-11-05T00:55:57.323Z,29.70
2018-11-05T00:56:57.267Z,31.60
2018-11-05T00:57:57.223Z,32.10
2018-11-05T00:58:57.176Z,32.10
2018-11-05T00:59:57.126Z,34.50
2018-11-05T01:00:57.072Z,34.10
2018-11-05T01:01:57.026Z,34.40
2018-11-05T01:02:56.976Z,33.60
2018-11-05T01:03:56.934Z,34.50
2018-11-05T01:04:56.880Z,34.20
2018-11-05T01:05:56.831Z,33.70
2018-11-05T01:06:56.788Z,34.00
2018-11-05T01:07:56.742Z,36.00
2018-11-05T01:08:56.688Z,34.20
2018-11-05T01:09:56.637Z,33.40
2018-11-05T01:10:56.593Z,35.00
2018-11-05T01:11:56.557Z,36.30
2018-11-05T01:12:56.492Z,32.90
2018-11-05T01:13:56.446Z,34.40
2018-11-05T01:14:56.393Z,37.90
2018-11-05T01:15:56.348Z,35.40
2018-11-05T01:16:56.299Z,36.40
2018-11-05T01:17:56.252Z,33.10
2018-11-05T01:18:56.201Z,37.40
2018-11-05T01:19:56.157Z,36.70
2018-11-05T01:20:56.100Z,36.30
2018-11-05T01:21:56.051Z,35.40
2018-11-05T01:22:56.002Z,36.40
2018-11-05T01:23:55.964Z,37.00
2018-11-05T01:24:55.907Z,36.40
2018-11-05T01:25:55.858Z,34.60
2018-11-05T01:26:55.807Z,37.30
2018-11-05T01:27:55.760Z,40.00
2018-11-05T01:28:55.719Z,40.50
2018-11-05T01:29:55.662Z,37.30
2018-11-05T01:30:55.617Z,42.90
2018-11-05T01:31:55.564Z,41.70
2018-11-05T01:32:55.522Z,39.70
2018-11-05T01:33:55.471Z,36.40
2018-11-05T01:34:55.421Z,39.40
2018-11-05T01:35:55.375Z,36.60
2018-11-05T01:36:55.347Z,35.90
2018-11-05T01:37:55.276Z,37.00
2018-11-05T01:38:55.241Z,36.10
2018-11-05T01:39:55.178Z,36.00
2018-11-05T01:40:55.132Z,36.50
2018-11-05T01:41:55.075Z,36.70
2018-11-05T01:42:55.033Z,37.30
2018-11-05T01:43:54.980Z,38.70
2018-11-05T01:44:54.928Z,40.40
2018-11-05T01:45:54.881Z,39.00
2018-11-05T01:46:54.837Z,35.80
2018-11-05T01:47:54.784Z,36.50
2018-11-05T01:48:54.737Z,41.70
2018-11-05T01:49:54.686Z,37.20
2018-11-05T01:50:54.636Z,34.50
2018-11-05T01:51:54.586Z,35.10
2018-11-05T01:52:54.540Z,36.40
2018-11-05T01:53:54.493Z,36.00
2018-11-05T01:54:54.445Z,36.30
2018-11-05T01:55:54.393Z,37.40
2018-11-05T01:56:54.348Z,38.00
2018-11-05T01:57:54.293Z,38.20
2018-11-05T01:58:54.252Z,36.80
2018-11-05T01:59:54.198Z,36.90
2018-11-05T02:00:54.150Z,38.40
2018-11-05T02:01:54.101Z,36.50
2018-11-05T02:02:54.057Z,40.80
2018-11-05T02:03:54.009Z,39.70
2018-11-05T02:04:53.960Z,41.30
2018-11-05T02:05:53.907Z,35.10
2018-11-05T02:06:53.855Z,36.30
2018-11-05T02:07:53.812Z,36.90
2018-11-05T02:08:53.760Z,36.90
2018-11-05T02:09:53.718Z,36.40
2018-11-05T02:10:53.664Z,37.60
2018-11-05T02:11:53.615Z,40.10
2018-11-05T02:12:53.572Z,36.30
2018-11-05T02:13:53.516Z,36.20
2018-11-05T02:14:53.466Z,33.60
2018-11-05T02:15:53.458Z,40.60
2018-11-05T02:16:53.367Z,36.90
2018-11-05T02:17:53.319Z,34.00
2018-11-05T02:18:53.277Z,35.30
2018-11-05T02:19:53.222Z,37.50
2018-11-05T02:20:53.179Z,36.30
2018-11-05T02:21:53.125Z,36.20
2018-11-05T02:22:53.078Z,39.60
2018-11-05T02:23:53.036Z,35.40
2018-11-05T02:24:52.977Z,38.30
2018-11-05T02:25:52.935Z,35.50
2018-11-05T02:26:52.880Z,39.00
2018-11-05T02:27:52.837Z,34.50
2018-11-05T02:28:52.792Z,37.70
2018-11-05T02:29:52.734Z,35.60
2018-11-05T02:30:52.685Z,36.90
2018-11-05T02:31:52.638Z,37.60
2018-11-05T02:32:52.592Z,42.60
2018-11-05T02:33:52.633Z,41.50
2018-11-05T02:34:52.567Z,37.40
2018-11-05T02:35:52.572Z,33.60
2018-11-05T02:36:52.397Z,36.00
2018-11-05T02:37:52.343Z,36.90
2018-11-05T02:38:52.303Z,37.80
2018-11-05T02:39:52.253Z,38.40
2018-11-05T02:40:52.197Z,35.20
2018-11-05T02:41:52.147Z,37.80
2018-11-05T02:42:52.105Z,36.10
2018-11-05T02:43:52.055Z,33.20
2018-11-05T02:44:52.002Z,36.70
2018-11-05T02:45:51.956Z,34.90
2018-11-05T02:46:51.907Z,34.90
2018-11-05T02:47:51.857Z,42.30
2018-11-05T02:48:51.807Z,35.60
2018-11-05T02:49:51.766Z,36.70
2018-11-05T02:50:51.717Z,37.70
2018-11-05T02:51:51.666Z,38.80
2018-11-05T02:52:51.611Z,38.00
2018-11-05T02:53:51.567Z,37.50
2018-11-05T02:54:51.516Z,37.20
2018-11-05T02:55:51.472Z,41.00
2018-11-05T02:56:51.419Z,39.00
2018-11-05T02:57:51.373Z,36.70
2018-11-05T02:58:51.319Z,39.20
2018-11-05T02:59:51.272Z,38.80
2018-11-05T03:00:51.223Z,38.40
2018-11-05T03:01:51.174Z,39.60
2018-11-05T03:02:51.127Z,32.90
2018-11-05T03:03:51.078Z,36.70
2018-11-05T03:04:51.036Z,37.10
2018-11-05T03:05:50.984Z,38.50
2018-11-05T03:06:50.932Z,36.10
2018-11-05T03:07:50.886Z,36.70
2018-11-05T03:08:50.830Z,33.30
2018-11-05T03:09:50.784Z,35.40
2018-11-05T03:10:50.739Z,34.50
2018-11-05T03:11:50.691Z,35.00
2018-11-05T03:12:50.634Z,34.40
2018-11-05T03:13:50.593Z,35.30
2018-11-05T03:14:50.544Z,34.60
2018-11-05T03:15:50.493Z,38.50
2018-11-05T03:16:50.447Z,39.50
2018-11-05T03:17:50.400Z,42.70
2018-11-05T03:18:50.346Z,38.10
2018-11-05T03:19:50.298Z,42.30
2018-11-05T03:20:50.251Z,45.50
2018-11-05T03:21:50.201Z,44.70
2018-11-05T03:22:50.148Z,44.80
2018-11-05T03:23:50.101Z,44.00
2018-11-05T03:24:50.052Z,44.70
2018-11-05T03:25:50.006Z,47.20
2018-11-05T03:26:49.964Z,51.90
2018-11-05T03:27:49.919Z,50.10
2018-11-05T03:28:49.862Z,53.10
2018-11-05T03:29:49.807Z,50.20
2018-11-05T03:30:49.785Z,51.20
2018-11-05T03:31:49.725Z,53.10
2018-11-05T03:32:49.669Z,49.00
2018-11-05T03:33:49.613Z,54.00
2018-11-05T03:34:49.568Z,51.90
2018-11-05T03:35:49.593Z,52.90
2018-11-05T03:36:49.466Z,48.00
2018-11-05T03:37:49.420Z,54.60
2018-11-05T03:38:49.373Z,46.00
2018-11-05T03:39:49.320Z,49.70
2018-11-05T03:40:49.272Z,48.30
2018-11-05T03:41:49.226Z,52.30
2018-11-05T03:42:49.176Z,54.60
2018-11-05T03:43:49.134Z,58.40
2018-11-05T03:44:49.078Z,56.20
2018-11-05T03:45:49.029Z,51.40
2018-11-05T03:46:48.984Z,53.70
2018-11-05T03:47:48.935Z,56.10
2018-11-05T03:48:48.890Z,50.10
2018-11-05T03:49:48.831Z,51.60
2018-11-05T03:50:48.786Z,49.90
2018-11-05T03:51:48.739Z,52.60
2018-11-05T03:52:48.689Z,55.00
2018-11-05T03:53:48.638Z,50.00
2018-11-05T03:54:48.590Z,54.10
2018-11-05T03:55:48.554Z,48.50
2018-11-05T03:56:48.618Z,53.10
2018-11-05T03:57:48.451Z,54.40
2018-11-05T03:58:48.398Z,51.40
2018-11-05T03:59:48.351Z,62.50
2018-11-05T04:00:48.300Z,50.50
2018-11-05T04:01:48.248Z,52.40
2018-11-05T04:02:48.199Z,49.40
2018-11-05T04:03:48.154Z,50.20
2018-11-05T04:04:48.106Z,57.80
2018-11-05T04:05:48.059Z,50.00
2018-11-05T04:06:48.006Z,51.40
2018-11-05T04:07:47.960Z,43.80
2018-11-05T04:08:47.916Z,46.30
2018-11-05T04:09:47.861Z,46.50
2018-11-05T04:10:47.817Z,50.90
2018-11-05T04:11:47.767Z,51.60
2018-11-05T04:12:47.719Z,48.50
2018-11-05T04:13:47.664Z,47.90
2018-11-05T04:14:47.618Z,50.20
2018-11-05T04:15:47.640Z,51.60
2018-11-05T04:16:47.521Z,47.40
2018-11-05T04:17:47.481Z,54.00
2018-11-05T04:18:47.432Z,46.80
2018-11-05T04:19:47.383Z,46.90
2018-11-05T04:20:47.322Z,46.30
2018-11-05T04:21:47.282Z,48.70
2018-11-05T04:22:47.236Z,49.40
2018-11-05T04:23:47.179Z,53.20
2018-11-05T04:24:47.129Z,45.20
2018-11-05T04:25:47.086Z,48.00
2018-11-05T04:26:47.032Z,47.10
2018-11-05T04:27:47.016Z,47.00
2018-11-05T04:28:46.935Z,43.20
2018-11-05T04:29:46.886Z,49.30
2018-11-05T04:30:46.838Z,46.50
2018-11-05T04:31:46.791Z,48.30
2018-11-05T04:32:46.748Z,47.50
2018-11-05T04:33:46.708Z,44.00
2018-11-05T04:34:46.642Z,44.00
2018-11-05T04:35:46.821Z,44.70
2018-11-05T04:36:46.548Z,42.70
2018-11-05T04:37:46.505Z,42.80
2018-11-05T04:38:46.541Z,41.50
2018-11-05T04:39:46.530Z,52.80
2018-11-05T04:40:46.354Z,46.70
2018-11-05T04:41:46.303Z,53.00
2018-11-05T04:42:46.264Z,50.60
2018-11-05T04:43:46.211Z,52.10
2018-11-05T04:44:46.156Z,49.10
2018-11-05T04:45:46.110Z,49.80
2018-11-05T04:46:46.062Z,55.50
2018-11-05T04:47:46.019Z,48.10
2018-11-05T04:48:45.963Z,48.80
2018-11-05T04:49:45.916Z,53.10
2018-11-05T04:50:45.870Z,52.40
2018-11-05T04:51:45.818Z,50.60
2018-11-05T04:52:45.772Z,56.40
2018-11-05T04:53:45.719Z,47.20
2018-11-05T04:54:45.671Z,57.70
2018-11-05T04:55:45.625Z,54.00
2018-11-05T04:56:45.585Z,52.50
2018-11-05T04:57:45.526Z,50.90
2018-11-05T04:58:45.484Z,58.20
2018-11-05T04:59:45.431Z,54.20
2018-11-05T05:00:45.388Z,59.20
2018-11-05T05:01:45.337Z,57.70
2018-11-05T05:02:45.285Z,55.60
2018-11-05T05:03:45.240Z,52.40
2018-11-05T05:04:45.189Z,50.40
2018-11-05T05:05:45.135Z,50.70
2018-11-05T05:06:45.098Z,53.50
2018-11-05T05:07:45.040Z,58.20
2018-11-05T05:08:44.992Z,50.00
2018-11-05T05:09:44.944Z,52.60
2018-11-05T05:10:44.900Z,49.00
2018-11-05T05:11:44.861Z,50.90
2018-11-05T05:12:44.798Z,53.10
2018-11-05T05:13:44.748Z,51.90
2018-11-05T05:14:44.710Z,44.60
2018-11-05T05:15:44.661Z,46.40
2018-11-05T05:16:44.601Z,49.00
2018-11-05T05:17:44.554Z,53.60
2018-11-05T05:18:44.512Z,51.40
2018-11-05T05:19:44.464Z,46.30
2018-11-05T05:20:44.414Z,47.20
2018-11-05T05:21:44.363Z,42.70
2018-11-05T05:22:44.610Z,46.90
2018-11-05T05:23:44.268Z,45.30
2018-11-05T05:24:44.235Z,46.60
2018-11-05T05:25:44.168Z,51.10
2018-11-05T05:26:44.133Z,53.20
2018-11-05T05:27:44.071Z,45.20
2018-11-05T05:28:44.027Z,53.50
2018-11-05T05:29:43.971Z,51.50
2018-11-05T05:30:43.925Z,51.30
2018-11-05T05:31:43.874Z,50.10
2018-11-05T05:32:43.832Z,48.50
2018-11-05T05:33:43.802Z,42.90
2018-11-05T05:34:43.730Z,47.80
2018-11-05T05:35:43.680Z,46.20
2018-11-05T05:36:43.639Z,54.90
2018-11-05T05:37:43.584Z,51.10
2018-11-05T05:38:43.535Z,51.60
2018-11-05T05:39:43.489Z,55.30
2018-11-05T05:40:43.518Z,50.80
2018-11-05T05:41:43.403Z,51.30
2018-11-05T05:42:43.351Z,48.00
2018-11-05T05:43:43.291Z,53.60
2018-11-05T05:44:43.242Z,50.60
2018-11-05T05:45:43.200Z,47.40
2018-11-05T05:46:43.152Z,50.20
2018-11-05T05:47:43.098Z,52.50
2018-11-05T05:48:43.049Z,55.80
2018-11-05T05:49:43.007Z,57.40
2018-11-05T05:50:42.956Z,50.00
2018-11-05T05:51:42.905Z,51.60
2018-11-05T05:52:42.859Z,54.60
2018-11-05T05:53:42.810Z,51.20
2018-11-05T05:54:42.761Z,53.40
2018-11-05T05:55:42.712Z,58.40
2018-11-05T05:56:42.671Z,58.40
2018-11-05T05:57:42.623Z,55.60
2018-11-05T05:58:42.569Z,58.40
2018-11-05T05:59:42.553Z,57.30
2018-11-05T06:00:42.474Z,58.60
2018-11-05T06:01:42.419Z,56.00
2018-11-05T06:02:42.376Z,54.90
2018-11-05T06:03:42.345Z,60.90
2018-11-05T06:04:42.271Z,63.10
2018-11-05T06:05:42.226Z,58.80
2018-11-05T06:06:42.333Z,60.10
2018-11-05T06:07:42.129Z,64.40
2018-11-05T06:08:42.078Z,59.80
2018-11-05T06:09:42.030Z,59.60
2018-11-05T06:10:41.983Z,61.10
2018-11-05T06:11:41.937Z,60.40
2018-11-05T06:12:41.890Z,60.90
2018-11-05T06:13:41.837Z,67.10
2018-11-05T06:14:41.794Z,69.70
2018-11-05T06:15:41.783Z,64.80
2018-11-05T06:16:41.696Z,62.30
2018-11-05T06:17:41.643Z,67.00
2018-11-05T06:18:41.593Z,59.70
2018-11-05T06:19:41.550Z,60.90
2018-11-05T06:20:41.501Z,68.10
2018-11-05T06:21:41.502Z,65.60
2018-11-05T06:22:41.405Z,64.70
2018-11-05T06:23:41.356Z,65.80
2018-11-05T06:24:41.318Z,67.60
2018-11-05T06:25:41.263Z,70.00
2018-11-05T06:26:41.208Z,73.10
2018-11-05T06:27:41.162Z,69.20
2018-11-05T06:28:41.161Z,70.00
2018-11-05T06:29:41.062Z,65.10
2018-11-05T06:30:41.010Z,73.80
2018-11-05T06:31:40.967Z,71.30
2018-11-05T06:32:40.921Z,65.40
2018-11-05T06:33:40.876Z,72.10
2018-11-05T06:34:40.824Z,65.10
2018-11-05T06:35:40.770Z,67.40
2018-11-05T06:36:40.729Z,72.20
2018-11-05T06:37:40.671Z,68.00
2018-11-05T06:38:40.626Z,64.50
2018-11-05T06:39:40.577Z,68.10
2018-11-05T06:40:40.524Z,61.20
2018-11-05T06:41:40.543Z,61.00
2018-11-05T06:42:40.433Z,60.30
2018-11-05T06:43:40.385Z,64.50
2018-11-05T06:44:40.375Z,68.30
2018-11-05T06:45:40.285Z,63.20
2018-11-05T06:46:40.233Z,62.20
2018-11-05T06:47:40.185Z,66.80
2018-11-05T06:48:40.169Z,63.00
2018-11-05T06:49:40.096Z,64.50
2018-11-05T06:50:40.050Z,69.50
2018-11-05T06:51:39.991Z,77.00
2018-11-05T06:52:39.961Z,75.80
2018-11-05T06:53:39.897Z,73.00
2018-11-05T06:54:39.849Z,77.20
2018-11-05T06:55:39.798Z,72.90
2018-11-05T06:56:39.749Z,105.20
2018-11-05T06:57:39.724Z,94.80
2018-11-05T06:58:39.652Z,84.90
2018-11-05T06:59:39.605Z,76.30
2018-11-05T07:00:39.564Z,95.50
2018-11-05T07:01:39.508Z,107.10
2018-11-05T07:02:39.626Z,116.10
2018-11-05T07:03:39.416Z,126.20
2018-11-05T07:04:39.367Z,113.80
2018-11-05T07:05:39.331Z,97.90
2018-11-05T07:06:39.267Z,96.60
2018-11-05T07:07:39.219Z,84.60
2018-11-05T07:08:39.168Z,69.10
2018-11-05T07:09:39.145Z,65.90
2018-11-05T07:10:39.072Z,67.00
2018-11-05T07:11:39.033Z,69.10
2018-11-05T07:12:38.975Z,70.20
2018-11-05T07:13:38.926Z,61.70
2018-11-05T07:14:38.874Z,63.70
2018-11-05T07:15:38.887Z,62.70
2018-11-05T07:16:38.781Z,64.40
2018-11-05T07:17:38.747Z,62.80
2018-11-05T07:18:38.838Z,54.90
2018-11-05T07:19:38.635Z,51.70
2018-11-05T07:20:38.585Z,53.30
2018-11-05T07:21:38.541Z,58.30
2018-11-05T07:22:38.488Z,53.10
2018-11-05T07:23:38.446Z,52.20
2018-11-05T07:24:38.392Z,53.30
2018-11-05T07:25:38.343Z,51.40
2018-11-05T07:26:38.372Z,46.00
2018-11-05T07:27:38.286Z,48.00
2018-11-05T07:28:38.200Z,47.20
2018-11-05T07:29:38.157Z,51.10
2018-11-05T07:30:38.103Z,42.80
2018-11-05T07:31:38.055Z,42.60
2018-11-05T07:32:38.011Z,41.40
2018-11-05T07:33:37.992Z,41.80
2018-11-05T07:34:37.915Z,41.10
2018-11-05T07:35:37.866Z,39.60
2018-11-05T07:36:37.818Z,39.00
2018-11-05T07:37:37.773Z,36.70
2018-11-05T07:38:37.720Z,37.10
2018-11-05T07:39:37.670Z,37.90
2018-11-05T07:40:37.633Z,39.00
2018-11-05T07:41:37.635Z,40.20
2018-11-05T07:42:37.564Z,40.60
2018-11-05T07:43:37.575Z,42.20
2018-11-05T07:44:37.425Z,43.30
2018-11-05T07:45:37.383Z,39.60
2018-11-05T07:46:37.331Z,41.00
2018-11-05T07:47:37.289Z,40.80
2018-11-05T07:48:37.247Z,40.40
2018-11-05T07:49:37.191Z,42.00
2018-11-05T07:50:37.161Z,39.90
2018-11-05T07:51:37.092Z,43.60
2018-11-05T07:52:37.050Z,43.60
2018-11-05T07:53:36.997Z,48.90
2018-11-05T07:54:36.948Z,44.90
2018-11-05T07:55:36.905Z,46.50
2018-11-05T07:56:36.893Z,48.30
2018-11-05T07:57:36.805Z,46.50
2018-11-05T07:58:39.360Z,50.30
2018-11-05T07:59:36.710Z,48.60
2018-11-05T08:00:36.664Z,50.50
2018-11-05T08:01:36.614Z,49.00
2018-11-05T08:02:36.629Z,49.80
2018-11-05T08:03:36.524Z,46.80
2018-11-05T08:04:36.474Z,46.10
2018-11-05T08:05:36.421Z,49.10
2018-11-05T08:06:36.382Z,45.60
2018-11-05T08:07:36.326Z,46.00
2018-11-05T08:08:36.277Z,43.50
2018-11-05T08:09:36.230Z,50.20
2018-11-05T08:10:36.179Z,46.70
2018-11-05T08:11:36.136Z,48.10
2018-11-05T08:12:36.085Z,50.10
2018-11-05T08:13:36.046Z,52.30
2018-11-05T08:14:36.006Z,48.30
2018-11-05T08:15:35.945Z,46.00
2018-11-05T08:16:35.891Z,47.00
2018-11-05T08:17:35.851Z,47.00
2018-11-05T08:18:35.797Z,45.10
2018-11-05T08:19:35.751Z,45.60
2018-11-05T08:20:35.703Z,44.70
2018-11-05T08:21:35.659Z,46.00
2018-11-05T08:22:35.615Z,46.90
2018-11-05T08:23:35.559Z,44.80
2018-11-05T08:24:35.512Z,41.70
2018-11-05T08:25:35.463Z,41.90
2018-11-05T08:26:35.423Z,41.70
2018-11-05T08:27:35.376Z,40.10
2018-11-05T08:28:35.321Z,43.60
2018-11-05T08:29:35.276Z,48.20
2018-11-05T08:30:35.229Z,43.20
2018-11-05T08:31:35.181Z,43.40
2018-11-05T08:32:35.130Z,49.70
2018-11-05T08:33:35.083Z,45.50
2018-11-05T08:34:35.042Z,49.00
2018-11-05T08:35:34.996Z,54.20
2018-11-05T08:36:34.938Z,51.50
2018-11-05T08:37:34.893Z,56.50
2018-11-05T08:38:34.846Z,56.90
2018-11-05T08:39:34.800Z,59.40
2018-11-05T08:40:34.749Z,56.30
2018-11-05T08:41:34.704Z,60.90
2018-11-05T08:42:34.656Z,57.80
2018-11-05T08:43:34.617Z,59.50
2018-11-05T08:44:34.560Z,55.90
2018-11-05T08:45:34.519Z,63.10
2018-11-05T08:46:34.489Z,57.40
2018-11-05T08:47:34.423Z,61.20
2018-11-05T08:48:34.371Z,54.80
2018-11-05T08:49:34.324Z,60.00
2018-11-05T08:50:34.319Z,63.80
2018-11-05T08:51:34.641Z,57.20
2018-11-05T08:52:34.184Z,53.20
2018-11-05T08:53:34.134Z,54.90
2018-11-05T08:54:34.086Z,57.80
2018-11-05T08:55:34.044Z,51.60
2018-11-05T08:56:33.994Z,53.40
2018-11-05T08:57:34.025Z,49.10
2018-11-05T08:58:33.902Z,49.10
2018-11-05T08:59:33.850Z,44.50
2018-11-05T09:00:33.800Z,45.60
2018-11-05T09:01:33.758Z,49.30
2018-11-05T09:02:33.710Z,42.80
2018-11-05T09:03:33.664Z,43.00
2018-11-05T09:04:33.709Z,43.20
2018-11-05T09:05:33.570Z,42.40
2018-11-05T09:06:33.515Z,38.70
2018-11-05T09:07:33.481Z,41.70
2018-11-05T09:08:33.421Z,39.30
2018-11-05T09:09:33.375Z,44.50
2018-11-05T09:10:33.467Z,41.60
2018-11-05T09:11:33.694Z,44.30
2018-11-05T09:12:33.239Z,44.30
2018-11-05T09:13:33.186Z,44.20
2018-11-05T09:14:33.145Z,47.80
2018-11-05T09:15:33.094Z,50.40
2018-11-05T09:16:33.045Z,47.80
2018-11-05T09:17:32.998Z,50.80
2018-11-05T09:18:32.951Z,52.90
2018-11-05T09:19:32.906Z,52.80
2018-11-05T09:20:32.863Z,53.20
2018-11-05T09:21:32.816Z,50.80
2018-11-05T09:22:32.762Z,51.10
2018-11-05T09:23:32.715Z,53.80
2018-11-05T09:24:32.669Z,50.50
2018-11-05T09:25:32.629Z,52.00
2018-11-05T09:26:32.577Z,52.80
2018-11-05T09:27:32.529Z,51.00
2018-11-05T09:28:32.483Z,50.40
2018-11-05T09:29:32.439Z,56.30
2018-11-05T09:30:32.394Z,48.40
2018-11-05T09:31:32.342Z,51.80
2018-11-05T09:32:32.291Z,50.40
2018-11-05T09:33:32.248Z,50.70
2018-11-05T09:34:32.199Z,53.30
2018-11-05T09:35:32.159Z,60.20
2018-11-05T09:36:32.110Z,53.30
2018-11-05T09:37:32.064Z,52.50
2018-11-05T09:38:32.013Z,53.20
2018-11-05T09:39:31.969Z,49.40
2018-11-05T09:40:31.919Z,51.60
2018-11-05T09:41:31.873Z,72.00
2018-11-05T09:42:31.875Z,58.90
2018-11-05T09:43:31.782Z,53.70
2018-11-05T09:44:31.735Z,52.80
2018-11-05T09:45:31.689Z,52.50
2018-11-05T09:46:31.637Z,55.70
2018-11-05T09:47:31.591Z,54.00
2018-11-05T09:48:31.544Z,59.50
2018-11-05T09:49:31.522Z,54.50
2018-11-05T09:50:31.514Z,49.70
2018-11-05T09:51:31.412Z,52.60
2018-11-05T09:52:31.357Z,50.90
2018-11-05T09:53:31.314Z,50.80
2018-11-05T09:54:31.272Z,49.70
2018-11-05T09:55:31.229Z,49.50
2018-11-05T09:56:31.181Z,54.00
2018-11-05T09:57:31.128Z,53.30
2018-11-05T09:58:31.081Z,50.00
2018-11-05T09:59:31.040Z,50.70
2018-11-05T10:00:30.988Z,52.50
2018-11-05T10:01:30.940Z,53.50
2018-11-05T10:02:30.900Z,56.80
2018-11-05T10:03:31.247Z,53.30
2018-11-05T10:04:31.066Z,48.70
2018-11-05T10:05:30.847Z,55.80
2018-11-05T10:06:30.719Z,55.40
2018-11-05T10:07:30.663Z,53.00
2018-11-05T10:08:30.617Z,53.00
2018-11-05T10:09:30.574Z,52.50
2018-11-05T10:10:30.624Z,53.20
2018-11-05T10:11:30.483Z,55.60
2018-11-05T10:12:30.438Z,54.10
2018-11-05T10:13:30.386Z,54.90
2018-11-05T10:14:30.337Z,51.10
2018-11-05T10:15:30.296Z,51.40
2018-11-05T10:16:30.337Z,51.70
2018-11-05T10:17:30.199Z,55.60
2018-11-05T10:18:30.159Z,50.20
2018-11-05T10:19:30.109Z,55.70
2018-11-05T10:20:30.060Z,53.90
2018-11-05T10:21:30.021Z,52.00
2018-11-05T10:22:29.974Z,53.60
2018-11-05T10:23:29.924Z,55.40
2018-11-05T10:24:29.929Z,52.60
2018-11-05T10:25:29.836Z,52.10
2018-11-05T10:26:29.788Z,53.20
2018-11-05T10:27:29.741Z,52.80
2018-11-05T10:28:29.703Z,54.30
2018-11-05T10:29:29.648Z,56.20
2018-11-05T10:30:29.604Z,54.10
2018-11-05T10:31:29.570Z,57.10
2018-11-05T10:32:29.517Z,54.10
2018-11-05T10:33:29.548Z,55.20
2018-11-05T10:34:29.417Z,52.40
2018-11-05T10:35:29.378Z,52.20
2018-11-05T10:36:29.395Z,56.40
2018-11-05T10:37:29.285Z,53.10
2018-11-05T10:38:29.288Z,51.00
2018-11-05T10:39:29.190Z,53.10
2018-11-05T10:40:29.302Z,56.60
2018-11-05T10:41:29.101Z,50.80
2018-11-05T10:42:29.056Z,57.70
2018-11-05T10:43:29.011Z,53.10
2018-11-05T10:44:28.960Z,54.00
2018-11-05T10:45:29.067Z,54.60
2018-11-05T10:46:28.921Z,51.80
2018-11-05T10:47:28.828Z,49.30
2018-11-05T10:48:28.775Z,54.60
2018-11-05T10:49:28.731Z,51.80
2018-11-05T10:50:28.867Z,51.80
2018-11-05T10:51:28.828Z,53.60
2018-11-05T10:52:28.700Z,60.30
2018-11-05T10:53:28.553Z,54.40
2018-11-05T10:54:28.503Z,47.40
2018-11-05T10:55:28.484Z,54.90
2018-11-05T10:56:28.410Z,50.40
2018-11-05T10:57:28.365Z,52.50
2018-11-05T10:58:28.320Z,48.40
2018-11-05T10:59:28.277Z,52.20
2018-11-05T11:00:28.225Z,51.70
2018-11-05T11:01:28.187Z,54.70
2018-11-05T11:02:28.140Z,53.40
2018-11-05T11:03:28.127Z,52.40
2018-11-05T11:04:28.119Z,52.90
2018-11-05T11:05:28.014Z,47.10
2018-11-05T11:06:27.954Z,47.60
2018-11-05T11:07:27.939Z,47.50
2018-11-05T11:08:27.863Z,48.10
2018-11-05T11:09:27.905Z,46.80
2018-11-05T11:10:27.769Z,47.10
2018-11-05T11:11:27.753Z,47.70
2018-11-05T11:12:27.679Z,49.90
2018-11-05T11:13:27.668Z,47.40
2018-11-05T11:14:27.595Z,46.40
2018-11-05T11:15:27.549Z,50.90
2018-11-05T11:16:27.496Z,52.50
2018-11-05T11:17:27.449Z,46.70
2018-11-05T11:18:27.410Z,50.30
2018-11-05T11:19:27.369Z,45.90
2018-11-05T11:20:27.321Z,46.20
2018-11-05T11:21:27.273Z,45.60
2018-11-05T11:22:27.223Z,49.90
2018-11-05T11:23:27.187Z,45.80
2018-11-05T11:24:27.139Z,45.80
2018-11-05T11:25:27.089Z,47.70
2018-11-05T11:26:27.042Z,45.80
2018-11-05T11:27:27.002Z,48.00
2018-11-05T11:28:27.036Z,48.60
2018-11-05T11:29:27.060Z,52.40
2018-11-05T11:30:26.861Z,46.30
2018-11-05T11:31:26.816Z,50.40
2018-11-05T11:32:26.767Z,51.90
2018-11-05T11:33:26.725Z,49.90
2018-11-05T11:34:26.685Z,47.30
2018-11-05T11:35:26.637Z,47.20
2018-11-05T11:36:26.664Z,43.40
2018-11-05T11:37:26.539Z,40.90
2018-11-05T11:38:26.495Z,47.70
2018-11-05T11:39:26.449Z,44.70
2018-11-05T11:40:26.404Z,43.90
2018-11-05T11:41:26.360Z,45.00
2018-11-05T11:42:26.316Z,45.70
2018-11-05T11:43:26.269Z,41.60
2018-11-05T11:44:26.226Z,40.00
2018-11-05T11:45:26.177Z,41.90
2018-11-05T11:46:26.147Z,40.30
2018-11-05T11:47:26.085Z,42.60
2018-11-05T11:48:26.045Z,45.10
2018-11-05T11:49:25.999Z,46.90
2018-11-05T11:50:25.950Z,41.80
2018-11-05T11:51:25.912Z,43.50
2018-11-05T11:52:25.862Z,41.60
2018-11-05T11:53:25.956Z,41.00
2018-11-05T11:54:25.768Z,39.30
2018-11-05T11:55:25.724Z,41.80
2018-11-05T11:56:25.683Z,39.40
2018-11-05T11:57:25.637Z,42.60
2018-11-05T11:58:25.595Z,41.90
2018-11-05T11:59:25.582Z,40.60
2018-11-05T12:00:25.502Z,38.60
2018-11-05T12:01:25.452Z,40.90
2018-11-05T12:02:25.415Z,39.00
2018-11-05T12:03:25.374Z,38.00
2018-11-05T12:04:25.330Z,41.40
2018-11-05T12:05:25.471Z,36.20
2018-11-05T12:06:25.228Z,38.40
2018-11-05T12:07:25.178Z,37.60
2018-11-05T12:08:25.131Z,41.00
2018-11-05T12:09:25.087Z,36.90
2018-11-05T12:10:25.041Z,39.70
2018-11-05T12:11:24.996Z,38.00
2018-11-05T12:12:24.953Z,38.50
2018-11-05T12:13:24.910Z,36.90
2018-11-05T12:14:24.941Z,37.00
2018-11-05T12:15:24.819Z,34.80
2018-11-05T12:16:24.775Z,40.00
2018-11-05T12:17:24.734Z,40.50
2018-11-05T12:18:24.677Z,39.30
2018-11-05T12:19:24.634Z,36.10
2018-11-05T12:20:24.670Z,40.90
2018-11-05T12:21:24.541Z,37.90
2018-11-05T12:22:24.526Z,39.30
2018-11-05T12:23:24.453Z,40.20
2018-11-05T12:24:24.413Z,39.10
2018-11-05T12:25:24.366Z,40.80
2018-11-05T12:26:24.396Z,38.80
2018-11-05T12:27:24.271Z,38.90
2018-11-05T12:28:24.226Z,42.30
2018-11-05T12:29:24.183Z,36.30
2018-11-05T12:30:24.135Z,38.30
2018-11-05T12:31:24.097Z,35.10
2018-11-05T12:32:24.043Z,34.30
2018-11-05T12:33:24.311Z,35.50
2018-11-05T12:34:23.957Z,34.70
2018-11-05T12:35:23.909Z,37.20
2018-11-05T12:36:23.863Z,35.80
2018-11-05T12:37:23.819Z,38.80
2018-11-05T12:38:23.782Z,37.10
2018-11-05T12:39:23.737Z,35.70
2018-11-05T12:40:23.689Z,39.40
2018-11-05T12:41:23.661Z,34.10
2018-11-05T12:42:23.593Z,32.10
2018-11-05T12:43:23.551Z,35.90
2018-11-05T12:44:23.525Z,36.50
2018-11-05T12:45:23.469Z,33.20
2018-11-05T12:46:23.414Z,35.60
2018-11-05T12:47:23.368Z,35.60
2018-11-05T12:48:23.323Z,31.80
2018-11-05T12:49:23.283Z,33.50
2018-11-05T12:50:23.288Z,34.70
2018-11-05T12:51:23.190Z,33.80